createdAt,value
2018-07-12T00:00:54.137Z,16.91
2018-07-12T00:03:22.231Z,16.82
2018-07-12T00:05:50.162Z,16.83
2018-07-12T00:08:18.136Z,16.83
2018-07-12T00:10:46.131Z,16.83
2018-07-12T00:13:14.134Z,16.82
2018-07-12T00:15:42.110Z,16.80
2018-07-12T00:18:10.130Z,16.80
2018-07-12T00:20:38.161Z,16.80
2018-07-12T00:23:06.133Z,16.81
2018-07-12T00:25:34.074Z,16.81
2018-07-12T00:28:02.121Z,16.78
2018-07-12T00:30:30.137Z,16.76
2018-07-12T00:32:58.225Z,16.77
2018-07-12T00:35:26.197Z,16.77
2018-07-12T00:37:54.183Z,16.72
2018-07-12T00:40:22.745Z,16.71
2018-07-12T00:42:50.682Z,16.65
2018-07-12T00:45:18.622Z,16.65
2018-07-12T00:47:46.674Z,16.67
2018-07-12T00:50:15.293Z,16.67
2018-07-12T00:52:45.902Z,16.68
2018-07-12T00:55:16.621Z,16.67
2018-07-12T00:57:46.550Z,16.66
2018-07-12T01:00:16.197Z,16.62
2018-07-12T01:02:45.830Z,16.60
2018-07-12T01:05:15.002Z,16.53
2018-07-12T01:07:42.942Z,16.59
2018-07-12T01:10:10.929Z,16.56
2018-07-12T01:12:39.186Z,16.56
2018-07-12T01:15:07.221Z,16.55
2018-07-12T01:17:35.209Z,16.56
2018-07-12T01:20:03.166Z,16.56
2018-07-12T01:22:31.312Z,16.47
2018-07-12T01:24:59.263Z,16.52
2018-07-12T01:27:27.262Z,16.53
2018-07-12T01:29:55.261Z,16.52
2018-07-12T01:32:23.221Z,16.51
2018-07-12T01:34:51.217Z,16.50
2018-07-12T01:37:19.948Z,16.48
2018-07-12T01:39:48.169Z,16.44
2018-07-12T01:42:16.210Z,16.45
2018-07-12T01:44:44.137Z,16.46
2018-07-12T01:47:12.213Z,16.39
2018-07-12T01:49:40.208Z,16.35
2018-07-12T01:52:08.141Z,16.33
2018-07-12T01:54:36.233Z,16.31
2018-07-12T01:57:04.230Z,16.30
2018-07-12T01:59:32.218Z,16.29
2018-07-12T02:02:00.196Z,16.28
2018-07-12T02:04:28.136Z,16.27
2018-07-12T02:06:56.135Z,16.24
2018-07-12T02:09:24.190Z,16.23
2018-07-12T02:11:52.178Z,16.24
2018-07-12T02:14:20.194Z,16.22
2018-07-12T02:16:48.169Z,16.21
2018-07-12T02:19:16.222Z,16.18
2018-07-12T02:21:44.156Z,16.17
2018-07-12T02:24:12.173Z,16.16
2018-07-12T02:26:40.102Z,16.14
2018-07-12T02:29:08.113Z,16.12
2018-07-12T02:31:36.186Z,16.09
2018-07-12T02:34:04.162Z,16.07
2018-07-12T02:36:32.210Z,16.07
2018-07-12T02:39:00.156Z,16.04
2018-07-12T02:41:28.154Z,16.02
2018-07-12T02:43:56.115Z,16.00
2018-07-12T02:46:24.092Z,15.97
2018-07-12T02:48:52.279Z,15.95
2018-07-12T02:51:20.208Z,15.94
2018-07-12T02:53:48.401Z,15.92
2018-07-12T02:56:16.653Z,15.90
2018-07-12T02:58:44.597Z,15.87
2018-07-12T03:01:12.975Z,15.85
2018-07-12T03:03:40.966Z,15.82
2018-07-12T03:06:09.288Z,15.78
2018-07-12T03:08:38.028Z,15.77
2018-07-12T03:11:08.716Z,15.75
2018-07-12T03:13:38.430Z,15.73
2018-07-12T03:16:09.134Z,15.71
2018-07-12T03:18:38.824Z,15.67
2018-07-12T03:21:07.950Z,15.66
2018-07-12T03:23:35.894Z,15.64
2018-07-12T03:26:03.925Z,15.63
2018-07-12T03:28:32.184Z,15.62
2018-07-12T03:31:00.258Z,15.60
2018-07-12T03:33:28.241Z,15.60
2018-07-12T03:35:56.221Z,15.56
2018-07-12T03:38:24.199Z,15.55
2018-07-12T03:40:52.189Z,15.53
2018-07-12T03:43:20.585Z,15.49
2018-07-12T03:45:48.773Z,15.46
2018-07-12T03:48:16.747Z,15.46
2018-07-12T03:50:45.103Z,15.43
2018-07-12T03:53:13.205Z,15.44
2018-07-12T03:55:41.325Z,15.44
2018-07-12T03:58:09.299Z,15.45
2018-07-12T04:00:37.259Z,15.38
2018-07-12T04:03:05.221Z,15.27
2018-07-12T04:05:33.178Z,15.21
2018-07-12T04:08:01.133Z,15.28
2018-07-12T04:10:29.198Z,15.25
2018-07-12T04:12:57.189Z,15.18
2018-07-12T04:15:25.145Z,15.22
2018-07-12T04:17:53.161Z,15.21
2018-07-12T04:20:21.211Z,15.24
2018-07-12T04:22:49.138Z,15.33
2018-07-12T04:25:17.337Z,15.33
2018-07-12T04:27:45.280Z,15.31
2018-07-12T04:30:13.281Z,15.37
2018-07-12T04:32:41.532Z,15.30
2018-07-12T04:35:09.462Z,15.32
2018-07-12T04:37:37.463Z,15.43
2018-07-12T04:40:05.590Z,15.42
2018-07-12T04:42:33.585Z,15.46
2018-07-12T04:45:01.879Z,15.48
2018-07-12T04:47:30.178Z,15.57
2018-07-12T04:49:58.161Z,15.55
2018-07-12T04:52:26.169Z,15.50
2018-07-12T04:54:54.109Z,15.51
2018-07-12T04:57:22.188Z,15.52
2018-07-12T04:59:50.190Z,15.55
2018-07-12T05:02:18.210Z,15.60
2018-07-12T05:04:46.184Z,15.66
2018-07-12T05:07:14.131Z,15.71
2018-07-12T05:09:42.229Z,15.77
2018-07-12T05:12:10.341Z,15.80
2018-07-12T05:14:38.397Z,15.83
2018-07-12T05:17:06.354Z,15.91
2018-07-12T05:19:34.849Z,15.95
2018-07-12T05:22:02.895Z,15.97
2018-07-12T05:24:31.002Z,16.03
2018-07-12T05:26:58.981Z,16.09
2018-07-12T05:29:29.633Z,16.14
2018-07-12T05:32:00.455Z,16.17
2018-07-12T05:34:30.613Z,16.22
2018-07-12T05:37:02.740Z,16.23
2018-07-12T05:39:34.450Z,16.31
2018-07-12T05:42:05.986Z,16.35
2018-07-12T05:44:38.633Z,16.36
2018-07-12T05:47:08.398Z,16.48
2018-07-12T05:49:39.217Z,16.52
2018-07-12T05:52:10.023Z,16.55
2018-07-12T05:54:40.834Z,16.62
2018-07-12T05:57:12.142Z,16.71
2018-07-12T05:59:42.965Z,16.80
2018-07-12T06:02:20.106Z,16.82
2018-07-12T06:04:50.349Z,16.84
2018-07-12T06:07:25.230Z,16.99
2018-07-12T06:09:55.171Z,17.02
2018-07-12T06:12:24.954Z,17.10
2018-07-12T06:14:54.810Z,17.21
2018-07-12T06:17:24.574Z,17.34
2018-07-12T06:19:54.373Z,17.51
2018-07-12T06:22:24.211Z,17.57
2018-07-12T06:24:54.026Z,17.62
2018-07-12T06:27:23.797Z,17.67
2018-07-12T06:29:54.701Z,17.77
2018-07-12T06:32:26.063Z,17.82
2018-07-12T06:34:56.953Z,17.81
2018-07-12T06:37:27.771Z,17.90
2018-07-12T06:39:59.370Z,17.95
2018-07-12T06:42:30.067Z,17.96
2018-07-12T06:45:01.156Z,18.01
2018-07-12T06:47:32.020Z,18.07
2018-07-12T06:50:02.786Z,18.11
2018-07-12T06:52:34.673Z,18.19
2018-07-12T06:55:05.033Z,18.28
2018-07-12T06:57:35.918Z,18.33
2018-07-12T07:00:06.742Z,18.45
2018-07-12T07:02:38.128Z,18.43
2018-07-12T07:05:08.950Z,18.40
2018-07-12T07:07:39.796Z,18.48
2018-07-12T07:10:10.701Z,18.58
2018-07-12T07:12:42.098Z,18.64
2018-07-12T07:15:12.891Z,18.69
2018-07-12T07:17:47.659Z,18.76
2018-07-12T07:20:17.638Z,18.87
2018-07-12T07:22:47.620Z,18.95
2018-07-12T07:25:17.402Z,18.98
2018-07-12T07:27:47.997Z,19.04
2018-07-12T07:30:17.965Z,19.21
2018-07-12T07:32:48.796Z,19.24
2018-07-12T07:35:19.741Z,19.33
2018-07-12T07:37:51.017Z,19.40
2018-07-12T07:40:21.802Z,19.51
2018-07-12T07:42:52.743Z,19.67
2018-07-12T07:45:23.985Z,19.75
2018-07-12T07:47:55.026Z,19.86
2018-07-12T07:50:25.751Z,19.80
2018-07-12T07:52:56.733Z,19.71
2018-07-12T07:55:32.292Z,19.77
2018-07-12T08:00:53.633Z,20.08
2018-07-12T08:03:23.500Z,20.22
2018-07-12T08:05:53.469Z,20.28
2018-07-12T08:08:23.267Z,20.32
2018-07-12T08:10:53.232Z,20.44
2018-07-12T08:13:23.158Z,20.56
2018-07-12T08:15:53.075Z,20.74
2018-07-12T08:18:23.213Z,20.72
2018-07-12T08:20:53.414Z,20.87
2018-07-12T08:23:23.677Z,21.04
2018-07-12T08:25:54.350Z,21.20
2018-07-12T08:28:26.937Z,21.31
2018-07-12T08:30:57.417Z,21.32
2018-07-12T08:33:27.860Z,21.46
2018-07-12T08:35:58.222Z,21.48
2018-07-12T08:38:28.055Z,21.52
2018-07-12T08:40:58.553Z,21.50
2018-07-12T08:43:28.686Z,21.65
2018-07-12T08:45:58.635Z,21.85
2018-07-12T08:48:28.529Z,22.01
2018-07-12T08:50:58.733Z,22.21
2018-07-12T08:53:28.538Z,22.27
2018-07-12T08:55:58.451Z,22.27
2018-07-12T08:58:28.353Z,22.36
2018-07-12T09:00:58.703Z,22.39
2018-07-12T09:03:28.530Z,22.31
2018-07-12T09:05:58.442Z,22.27
2018-07-12T09:08:28.748Z,21.78
2018-07-12T09:10:58.665Z,22.37
2018-07-12T09:13:28.506Z,22.42
2018-07-12T09:15:59.038Z,22.53
2018-07-12T09:18:29.796Z,22.58
2018-07-12T09:21:00.696Z,22.61
2018-07-12T09:23:31.959Z,22.76
2018-07-12T09:26:02.728Z,22.88
2018-07-12T09:28:33.639Z,22.95
2018-07-12T09:31:05.068Z,23.14
2018-07-12T09:33:35.837Z,23.26
2018-07-12T09:36:06.945Z,23.34
2018-07-12T09:38:53.131Z,23.19
2018-07-12T09:41:24.713Z,23.21
2018-07-12T09:43:54.936Z,23.05
2018-07-12T09:46:25.028Z,22.98
2018-07-12T09:48:55.186Z,22.89
2018-07-12T09:51:25.137Z,22.86
2018-07-12T09:53:55.555Z,22.85
2018-07-12T09:56:35.222Z,22.66
2018-07-12T09:59:05.315Z,22.41
2018-07-12T10:01:40.295Z,22.26
2018-07-12T10:04:10.150Z,22.00
2018-07-12T10:06:44.893Z,21.67
2018-07-12T10:09:19.989Z,21.40
2018-07-12T10:11:55.044Z,21.30
2018-07-12T10:14:30.019Z,21.37
2018-07-12T10:17:05.000Z,21.41
2018-07-12T10:19:35.040Z,21.46
2018-07-12T10:22:05.041Z,21.48
2018-07-12T10:24:35.136Z,21.48
2018-07-12T10:27:05.220Z,21.56
2018-07-12T10:29:35.095Z,21.73
2018-07-12T10:32:05.011Z,21.86
2018-07-12T10:34:35.017Z,21.83
2018-07-12T10:37:05.165Z,21.74
2018-07-12T10:39:35.118Z,21.67
2018-07-12T10:42:04.975Z,20.54
2018-07-12T10:44:35.258Z,19.76
2018-07-12T10:47:05.222Z,19.09
2018-07-12T10:49:35.188Z,18.96
2018-07-12T10:52:05.109Z,18.42
2018-07-12T10:54:35.111Z,18.19
2018-07-12T10:57:05.176Z,18.16
2018-07-12T10:59:35.078Z,18.01
2018-07-12T11:02:05.101Z,17.76
2018-07-12T11:04:35.020Z,17.97
2018-07-12T11:07:05.154Z,18.04
2018-07-12T11:09:35.130Z,18.09
2018-07-12T11:12:04.988Z,18.10
2018-07-12T11:14:35.065Z,18.04
2018-07-12T11:17:05.034Z,17.88
2018-07-12T11:19:35.058Z,17.72
2018-07-12T11:22:05.357Z,17.78
2018-07-12T11:24:35.378Z,17.90
2018-07-12T11:27:05.266Z,17.96
2018-07-12T11:29:45.820Z,17.99
2018-07-12T11:32:15.610Z,17.97
2018-07-12T11:34:45.446Z,17.82
2018-07-12T11:37:21.596Z,17.89
2018-07-12T11:39:51.661Z,18.00
2018-07-12T11:42:21.443Z,18.04
2018-07-12T11:44:51.653Z,18.03
2018-07-12T11:47:21.845Z,18.01
2018-07-12T11:49:52.080Z,17.87
2018-07-12T11:52:22.148Z,17.55
2018-07-12T11:54:52.849Z,17.57
2018-07-12T11:57:25.266Z,17.49
2018-07-12T11:59:55.358Z,17.50
2018-07-12T12:02:25.270Z,17.50
2018-07-12T12:04:55.132Z,17.50
2018-07-12T12:07:25.138Z,17.56
2018-07-12T12:09:55.066Z,17.58
2018-07-12T12:12:25.079Z,17.68
2018-07-12T12:14:55.035Z,17.83
2018-07-12T12:17:24.972Z,17.95
2018-07-12T12:19:54.992Z,18.09
2018-07-12T12:22:25.062Z,18.20
2018-07-12T12:24:55.067Z,18.67
2018-07-12T12:27:25.249Z,19.06
2018-07-12T12:29:55.769Z,19.18
2018-07-12T12:32:26.065Z,19.14
2018-07-12T12:34:56.828Z,19.10
2018-07-12T12:37:26.904Z,18.95
2018-07-12T12:39:57.074Z,18.96
2018-07-12T12:42:27.605Z,19.01
2018-07-12T12:44:57.761Z,19.09
2018-07-12T12:47:27.600Z,19.14
2018-07-12T12:49:57.877Z,19.24
2018-07-12T12:52:28.027Z,19.33
2018-07-12T12:54:57.974Z,19.41
2018-07-12T12:57:27.790Z,19.59
2018-07-12T12:59:58.098Z,20.04
2018-07-12T13:02:27.911Z,20.55
2018-07-12T13:04:57.818Z,21.11
2018-07-12T13:07:27.680Z,21.53
2018-07-12T13:09:57.604Z,21.75
2018-07-12T13:12:27.961Z,21.89
2018-07-12T13:14:57.882Z,22.04
2018-07-12T13:17:27.795Z,22.30
2018-07-12T13:19:58.911Z,22.75
2018-07-12T13:22:29.787Z,22.98
2018-07-12T13:25:01.166Z,23.40
2018-07-12T13:27:31.975Z,23.48
2018-07-12T13:30:03.652Z,23.54
2018-07-12T13:32:33.933Z,23.53
2018-07-12T13:35:04.846Z,23.50
2018-07-12T13:37:35.765Z,23.21
2018-07-12T13:40:07.721Z,23.04
2018-07-12T13:42:38.089Z,22.99
2018-07-12T13:45:09.079Z,22.87
2018-07-12T13:47:39.943Z,22.95
2018-07-12T13:50:11.047Z,23.02
2018-07-12T13:52:41.855Z,23.00
2018-07-12T13:55:12.937Z,23.13
2018-07-12T13:57:43.890Z,23.27
2018-07-12T14:00:14.851Z,23.41
2018-07-12T14:02:48.393Z,23.32
2018-07-12T14:05:18.857Z,23.07
2018-07-12T14:07:48.737Z,23.01
2018-07-12T14:10:18.949Z,23.03
2018-07-12T14:12:50.882Z,23.06
2018-07-12T14:15:20.951Z,22.98
2018-07-12T14:17:51.972Z,23.10
2018-07-12T14:20:23.662Z,23.13
2018-07-12T14:22:54.149Z,23.36
2018-07-12T14:25:25.047Z,23.46
2018-07-12T14:27:55.825Z,23.45
2018-07-12T14:30:26.745Z,23.64
2018-07-12T14:32:57.630Z,23.59
2018-07-12T14:35:27.587Z,23.52
2018-07-12T14:37:59.921Z,23.44
2018-07-12T14:40:30.784Z,23.45
2018-07-12T14:43:01.590Z,23.28
2018-07-12T14:45:32.996Z,23.35
2018-07-12T14:48:03.746Z,23.54
2018-07-12T14:50:35.225Z,23.81
2018-07-12T14:53:06.032Z,23.98
2018-07-12T14:55:37.105Z,24.02
2018-07-12T14:58:07.986Z,24.16
2018-07-12T15:00:39.164Z,24.13
2018-07-12T15:03:10.626Z,24.01
2018-07-12T15:05:40.886Z,23.90
2018-07-12T15:08:11.655Z,23.62
2018-07-12T15:10:44.249Z,23.48
2018-07-12T15:13:14.035Z,23.33
2018-07-12T15:15:44.895Z,23.32
2018-07-12T15:18:15.989Z,23.14
2018-07-12T15:20:47.086Z,23.05
2018-07-12T15:23:17.815Z,22.80
2018-07-12T15:25:48.693Z,22.87
2018-07-12T15:28:19.579Z,22.69
2018-07-12T15:30:50.999Z,22.58
2018-07-12T15:33:21.681Z,22.61
2018-07-12T15:35:53.111Z,22.67
2018-07-12T15:38:23.818Z,22.49
2018-07-12T15:40:54.643Z,22.47
2018-07-12T15:43:26.020Z,22.44
2018-07-12T15:45:56.801Z,22.46
2018-07-12T15:48:27.714Z,22.43
2018-07-12T15:50:58.639Z,22.30
2018-07-12T15:53:29.915Z,22.14
2018-07-12T15:56:00.707Z,22.02
2018-07-12T15:58:31.926Z,21.89
2018-07-12T16:01:02.701Z,21.81
2018-07-12T16:03:33.581Z,21.83
2018-07-12T16:06:04.970Z,21.40
2018-07-12T16:08:35.813Z,21.30
2018-07-12T16:11:06.710Z,21.17
2018-07-12T16:13:37.970Z,21.23
2018-07-12T16:16:08.782Z,21.02
2018-07-12T16:18:40.057Z,20.94
2018-07-12T16:21:10.823Z,20.86
2018-07-12T16:23:41.864Z,20.75
2018-07-12T16:26:13.602Z,20.29
2018-07-12T16:28:44.180Z,20.29
2018-07-12T16:31:15.622Z,20.36
2018-07-12T16:33:46.030Z,20.28
2018-07-12T16:36:16.860Z,20.27
2018-07-12T16:38:47.757Z,20.24
2018-07-12T16:41:17.706Z,20.22
2018-07-12T16:43:48.970Z,20.19
2018-07-12T16:46:20.091Z,19.97
2018-07-12T16:48:51.621Z,19.96
2018-07-12T16:51:22.006Z,20.02
2018-07-12T16:53:52.783Z,19.94
2018-07-12T16:56:23.693Z,19.96
2018-07-12T16:58:54.921Z,20.00
2018-07-12T17:01:25.719Z,20.05
2018-07-12T17:03:56.662Z,20.02
2018-07-12T17:06:28.416Z,20.05
2018-07-12T17:08:58.998Z,20.10
2018-07-12T17:11:29.852Z,20.21
2018-07-12T17:14:00.658Z,20.29
2018-07-12T17:16:32.014Z,20.30
2018-07-12T17:19:02.733Z,20.33
2018-07-12T17:21:33.689Z,20.38
2018-07-12T17:24:15.339Z,20.41
2018-07-12T17:26:45.630Z,20.40
2018-07-12T17:29:15.451Z,20.37
2018-07-12T17:31:45.366Z,20.35
2018-07-12T17:34:15.743Z,20.32
2018-07-12T17:36:45.654Z,20.28
2018-07-12T17:39:15.614Z,20.29
2018-07-12T17:41:45.603Z,20.28
2018-07-12T17:44:15.463Z,20.23
2018-07-12T17:46:46.327Z,20.20
2018-07-12T17:49:16.416Z,20.16
2018-07-12T17:51:46.791Z,20.20
2018-07-12T17:54:16.694Z,20.20
2018-07-12T17:56:46.647Z,20.17
2018-07-12T17:59:18.075Z,20.20
2018-07-12T18:01:48.888Z,20.20
2018-07-12T18:04:19.705Z,20.19
2018-07-12T18:06:50.721Z,20.12
2018-07-12T18:09:21.728Z,20.12
2018-07-12T18:11:53.211Z,20.11
2018-07-12T18:14:23.913Z,20.10
2018-07-12T18:16:55.698Z,20.07
2018-07-12T18:19:25.823Z,19.97
2018-07-12T18:21:57.202Z,19.98
2018-07-12T18:24:27.942Z,20.01
2018-07-12T18:26:58.900Z,20.01
2018-07-12T18:29:29.827Z,19.98
2018-07-12T18:32:00.458Z,19.98
2018-07-12T18:34:31.094Z,20.00
2018-07-12T18:37:02.291Z,19.99
2018-07-12T18:39:32.877Z,19.99
2018-07-12T18:42:03.849Z,19.99
2018-07-12T18:44:34.732Z,20.01
2018-07-12T18:47:06.550Z,19.94
2018-07-12T18:49:37.254Z,19.92
2018-07-12T18:52:08.273Z,19.88
2018-07-12T18:54:39.190Z,19.86
2018-07-12T18:57:10.039Z,19.81
2018-07-12T18:59:40.846Z,19.79
2018-07-12T19:02:11.862Z,19.77
2018-07-12T19:04:42.798Z,19.73
2018-07-12T19:07:13.713Z,19.70
2018-07-12T19:09:45.046Z,19.63
2018-07-12T19:12:15.921Z,19.54
2018-07-12T19:14:46.960Z,19.52
2018-07-12T19:17:17.794Z,19.46
2018-07-12T19:19:48.690Z,19.44
2018-07-12T19:22:20.149Z,19.38
2018-07-12T19:24:50.875Z,19.25
2018-07-12T19:27:21.779Z,19.16
2018-07-12T19:29:52.845Z,19.10
2018-07-12T19:32:23.826Z,19.09
2018-07-12T19:34:54.753Z,19.07
2018-07-12T19:37:25.877Z,19.06
2018-07-12T19:39:56.749Z,19.05
2018-07-12T19:42:27.812Z,19.09
2018-07-12T19:44:58.777Z,19.07
2018-07-12T19:47:29.730Z,18.99
2018-07-12T19:50:00.986Z,19.07
2018-07-12T19:52:31.966Z,18.99
2018-07-12T19:55:03.216Z,18.93
2018-07-12T19:57:33.990Z,18.91
2018-07-12T20:00:05.208Z,18.84
2018-07-12T20:02:36.109Z,18.86
2018-07-12T20:05:07.105Z,18.85
2018-07-12T20:07:38.134Z,18.83
2018-07-12T20:10:08.876Z,18.82
2018-07-12T20:12:38.773Z,18.82
2018-07-12T20:15:09.869Z,18.80
2018-07-12T20:17:40.820Z,18.81
2018-07-12T20:20:11.818Z,18.79
2018-07-12T20:22:42.809Z,18.80
2018-07-12T20:25:13.835Z,18.75
2018-07-12T20:27:44.892Z,18.75
2018-07-12T20:30:15.796Z,18.74
2018-07-12T20:32:46.883Z,18.73
2018-07-12T20:35:17.774Z,18.73
2018-07-12T20:37:48.748Z,18.75
2018-07-12T20:40:19.752Z,18.75
2018-07-12T20:42:51.657Z,18.77
2018-07-12T20:45:22.213Z,18.76
2018-07-12T20:47:53.328Z,18.77
2018-07-12T20:50:24.918Z,18.74
2018-07-12T20:52:54.911Z,18.72
2018-07-12T20:55:25.699Z,18.70
2018-07-12T20:57:57.002Z,18.69
2018-07-12T21:00:27.800Z,18.68
2018-07-12T21:02:58.816Z,18.69
2018-07-12T21:05:29.740Z,18.69
2018-07-12T21:08:01.172Z,18.68
2018-07-12T21:10:34.677Z,18.64
2018-07-12T21:13:04.550Z,18.66
2018-07-12T21:15:34.426Z,18.65
2018-07-12T21:18:05.031Z,18.66
2018-07-12T21:20:35.803Z,18.63
2018-07-12T21:23:06.919Z,18.64
2018-07-12T21:25:36.747Z,18.64
2018-07-12T21:28:07.955Z,18.64
2018-07-12T21:30:38.753Z,18.63
2018-07-12T21:33:09.665Z,18.64
2018-07-12T21:35:39.780Z,18.62
2018-07-12T21:38:10.838Z,18.62
2018-07-12T21:40:41.622Z,18.57
2018-07-12T21:43:13.042Z,18.52
2018-07-12T21:45:44.750Z,18.50
2018-07-12T21:48:15.241Z,18.48
2018-07-12T21:50:45.014Z,18.41
2018-07-12T21:53:15.777Z,18.36
2018-07-12T21:55:46.634Z,18.33
2018-07-12T21:58:18.149Z,18.24
2018-07-12T22:00:48.869Z,18.28
2018-07-12T22:03:19.814Z,18.28
2018-07-12T22:05:50.619Z,18.27
2018-07-12T22:08:26.020Z,18.27
2018-07-12T22:11:05.398Z,18.27
2018-07-12T22:13:36.400Z,18.26
2018-07-12T22:16:06.858Z,18.26
2018-07-12T22:18:36.666Z,18.25
2018-07-12T22:21:06.513Z,18.23
2018-07-12T22:23:36.460Z,18.20
2018-07-12T22:26:06.466Z,18.18
2018-07-12T22:28:36.717Z,18.15
2018-07-12T22:31:06.538Z,18.14
2018-07-12T22:33:36.425Z,18.09
2018-07-12T22:36:06.498Z,18.11
2018-07-12T22:38:36.334Z,18.09
2018-07-12T22:41:06.129Z,18.06
2018-07-12T22:43:35.972Z,18.02
2018-07-12T22:46:05.820Z,17.98
2018-07-12T22:48:36.790Z,17.91
2018-07-12T22:51:07.725Z,17.80
2018-07-12T22:53:39.000Z,17.73
2018-07-12T22:56:10.122Z,17.68
2018-07-12T22:58:39.966Z,17.60
2018-07-12T23:01:10.781Z,17.57
2018-07-12T23:03:42.041Z,17.53
2018-07-12T23:06:12.815Z,17.50
2018-07-12T23:08:43.736Z,17.52
2018-07-12T23:11:14.630Z,17.51
2018-07-12T23:13:46.010Z,17.48
2018-07-12T23:16:16.839Z,17.46
2018-07-12T23:18:47.730Z,17.40
2018-07-12T23:21:19.014Z,17.39
2018-07-12T23:23:49.845Z,17.40
2018-07-12T23:26:20.705Z,17.39
2018-07-12T23:28:52.018Z,17.35
2018-07-12T23:31:23.796Z,17.31
2018-07-12T23:33:53.711Z,17.23
2018-07-12T23:36:24.959Z,17.25
2018-07-12T23:38:55.761Z,17.21
2018-07-12T23:41:26.762Z,17.21
2018-07-12T23:43:58.050Z,17.18
2018-07-12T23:46:28.845Z,17.15
2018-07-12T23:48:59.710Z,17.12
2018-07-12T23:51:31.017Z,17.09
2018-07-12T23:54:01.867Z,17.07
2018-07-12T23:56:32.778Z,17.01
2018-07-12T23:59:03.738Z,16.95
